sensor_id;sensor_type;location;lat;lon;timestamp;P1;durP1;ratioP1;P2;durP2;ratioP2
16450;SDS011;12243;42.708;23.310;2022-07-19T00:00:04;8.43;;;3.40;;
16450;SDS011;12243;42.708;23.310;2022-07-19T00:02:36;4.30;;;3.10;;
16450;SDS011;12243;42.708;23.310;2022-07-19T00:05:03;3.17;;;2.90;;
16450;SDS011;12243;42.708;23.310;2022-07-19T00:07:31;3.65;;;2.97;;
16450;SDS011;12243;42.708;23.310;2022-07-19T00:09:59;3.00;;;2.70;;
16450;SDS011;12243;42.708;23.310;2022-07-19T00:12:26;5.90;;;3.10;;
16450;SDS011;12243;42.708;23.310;2022-07-19T00:14:53;5.77;;;3.10;;
16450;SDS011;12243;42.708;23.310;2022-07-19T00:17:20;3.43;;;3.13;;
16450;SDS011;12243;42.708;23.310;2022-07-19T00:19:47;3.42;;;2.60;;
16450;SDS011;12243;42.708;23.310;2022-07-19T00:22:14;3.87;;;2.87;;
16450;SDS011;12243;42.708;23.310;2022-07-19T00:24:41;4.43;;;2.80;;
16450;SDS011;12243;42.708;23.310;2022-07-19T00:27:09;5.13;;;2.83;;
16450;SDS011;12243;42.708;23.310;2022-07-19T00:29:37;4.63;;;3.00;;
16450;SDS011;12243;42.708;23.310;2022-07-19T00:32:04;7.00;;;3.08;;
16450;SDS011;12243;42.708;23.310;2022-07-19T00:34:31;3.33;;;2.53;;
16450;SDS011;12243;42.708;23.310;2022-07-19T00:36:58;4.03;;;2.92;;
16450;SDS011;12243;42.708;23.310;2022-07-19T00:39:25;2.90;;;2.70;;
16450;SDS011;12243;42.708;23.310;2022-07-19T00:41:53;2.83;;;2.63;;
16450;SDS011;12243;42.708;23.310;2022-07-19T00:44:21;2.92;;;2.63;;
16450;SDS011;12243;42.708;23.310;2022-07-19T00:46:48;3.83;;;2.90;;
16450;SDS011;12243;42.708;23.310;2022-07-19T00:49:16;3.08;;;2.70;;
16450;SDS011;12243;42.708;23.310;2022-07-19T00:51:45;3.78;;;2.60;;
16450;SDS011;12243;42.708;23.310;2022-07-19T00:54:13;3.80;;;2.93;;
16450;SDS011;12243;42.708;23.310;2022-07-19T00:56:41;4.15;;;2.58;;
16450;SDS011;12243;42.708;23.310;2022-07-19T00:59:10;2.63;;;2.35;;
16450;SDS011;12243;42.708;23.310;2022-07-19T01:01:40;2.97;;;2.75;;
16450;SDS011;12243;42.708;23.310;2022-07-19T01:04:07;5.57;;;2.90;;
16450;SDS011;12243;42.708;23.310;2022-07-19T01:06:34;2.40;;;2.30;;
16450;SDS011;12243;42.708;23.310;2022-07-19T01:09:01;4.70;;;2.80;;
16450;SDS011;12243;42.708;23.310;2022-07-19T01:11:28;4.45;;;2.60;;
16450;SDS011;12243;42.708;23.310;2022-07-19T01:13:56;2.53;;;2.43;;
16450;SDS011;12243;42.708;23.310;2022-07-19T01:16:22;5.20;;;2.43;;
16450;SDS011;12243;42.708;23.310;2022-07-19T01:18:51;3.00;;;2.80;;
16450;SDS011;12243;42.708;23.310;2022-07-19T01:21:20;2.60;;;2.40;;
16450;SDS011;12243;42.708;23.310;2022-07-19T01:23:47;3.13;;;2.90;;
16450;SDS011;12243;42.708;23.310;2022-07-19T01:26:14;7.43;;;3.00;;
16450;SDS011;12243;42.708;23.310;2022-07-19T01:28:41;4.67;;;2.63;;
16450;SDS011;12243;42.708;23.310;2022-07-19T01:31:09;2.40;;;2.20;;
16450;SDS011;12243;42.708;23.310;2022-07-19T01:33:39;4.87;;;3.13;;
16450;SDS011;12243;42.708;23.310;2022-07-19T01:36:08;4.30;;;2.60;;
16450;SDS011;12243;42.708;23.310;2022-07-19T01:38:37;4.17;;;2.90;;
16450;SDS011;12243;42.708;23.310;2022-07-19T01:41:05;3.10;;;2.77;;
16450;SDS011;12243;42.708;23.310;2022-07-19T01:43:32;2.50;;;2.40;;
16450;SDS011;12243;42.708;23.310;2022-07-19T01:45:59;3.17;;;2.77;;
16450;SDS011;12243;42.708;23.310;2022-07-19T01:48:26;2.83;;;2.47;;
16450;SDS011;12243;42.708;23.310;2022-07-19T01:50:53;3.03;;;2.73;;
16450;SDS011;12243;42.708;23.310;2022-07-19T01:53:20;3.00;;;2.80;;
16450;SDS011;12243;42.708;23.310;2022-07-19T01:55:48;2.87;;;2.67;;
16450;SDS011;12243;42.708;23.310;2022-07-19T01:58:15;4.10;;;2.60;;
16450;SDS011;12243;42.708;23.310;2022-07-19T02:00:42;2.93;;;2.63;;
16450;SDS011;12243;42.708;23.310;2022-07-19T02:03:09;3.13;;;2.95;;
16450;SDS011;12243;42.708;23.310;2022-07-19T02:05:36;2.37;;;2.27;;
16450;SDS011;12243;42.708;23.310;2022-07-19T02:08:03;4.50;;;2.50;;
16450;SDS011;12243;42.708;23.310;2022-07-19T02:10:30;4.53;;;2.57;;
16450;SDS011;12243;42.708;23.310;2022-07-19T02:12:58;7.20;;;2.90;;
16450;SDS011;12243;42.708;23.310;2022-07-19T02:15:25;6.53;;;2.80;;
16450;SDS011;12243;42.708;23.310;2022-07-19T02:17:52;2.90;;;2.70;;
16450;SDS011;12243;42.708;23.310;2022-07-19T02:20:19;3.10;;;2.90;;
16450;SDS011;12243;42.708;23.310;2022-07-19T02:22:46;4.83;;;3.00;;
16450;SDS011;12243;42.708;23.310;2022-07-19T02:25:13;3.00;;;2.70;;
16450;SDS011;12243;42.708;23.310;2022-07-19T02:27:40;3.03;;;2.77;;
16450;SDS011;12243;42.708;23.310;2022-07-19T02:30:09;4.27;;;2.93;;
16450;SDS011;12243;42.708;23.310;2022-07-19T02:32:37;2.80;;;2.70;;
16450;SDS011;12243;42.708;23.310;2022-07-19T02:35:05;3.07;;;2.60;;
16450;SDS011;12243;42.708;23.310;2022-07-19T02:37:33;5.00;;;2.97;;
16450;SDS011;12243;42.708;23.310;2022-07-19T02:40:00;3.83;;;3.07;;
16450;SDS011;12243;42.708;23.310;2022-07-19T02:42:27;5.73;;;2.90;;
16450;SDS011;12243;42.708;23.310;2022-07-19T02:44:54;3.97;;;3.17;;
16450;SDS011;12243;42.708;23.310;2022-07-19T02:47:22;4.07;;;2.87;;
16450;SDS011;12243;42.708;23.310;2022-07-19T02:49:49;4.60;;;3.13;;
16450;SDS011;12243;42.708;23.310;2022-07-19T02:52:16;3.03;;;2.80;;
16450;SDS011;12243;42.708;23.310;2022-07-19T02:54:43;6.20;;;2.80;;
16450;SDS011;12243;42.708;23.310;2022-07-19T02:57:10;7.90;;;3.13;;
16450;SDS011;12243;42.708;23.310;2022-07-19T02:59:37;3.60;;;3.30;;
16450;SDS011;12243;42.708;23.310;2022-07-19T03:02:04;3.90;;;3.60;;
16450;SDS011;12243;42.708;23.310;2022-07-19T03:04:32;6.13;;;3.80;;
16450;SDS011;12243;42.708;23.310;2022-07-19T03:06:59;4.90;;;4.40;;
16450;SDS011;12243;42.708;23.310;2022-07-19T03:09:26;5.93;;;3.93;;
16450;SDS011;12243;42.708;23.310;2022-07-19T03:11:52;4.80;;;4.40;;
16450;SDS011;12243;42.708;23.310;2022-07-19T03:14:20;5.23;;;4.67;;
16450;SDS011;12243;42.708;23.310;2022-07-19T03:16:47;4.83;;;4.40;;
16450;SDS011;12243;42.708;23.310;2022-07-19T03:19:13;4.67;;;4.27;;
16450;SDS011;12243;42.708;23.310;2022-07-19T03:21:42;5.07;;;4.67;;
16450;SDS011;12243;42.708;23.310;2022-07-19T03:24:08;5.37;;;4.87;;
16450;SDS011;12243;42.708;23.310;2022-07-19T03:26:35;5.60;;;5.07;;
16450;SDS011;12243;42.708;23.310;2022-07-19T03:29:02;9.40;;;4.97;;
16450;SDS011;12243;42.708;23.310;2022-07-19T03:31:29;5.73;;;5.23;;
16450;SDS011;12243;42.708;23.310;2022-07-19T03:33:56;6.03;;;4.90;;
16450;SDS011;12243;42.708;23.310;2022-07-19T03:36:23;5.57;;;5.07;;
16450;SDS011;12243;42.708;23.310;2022-07-19T03:38:51;5.30;;;4.73;;
16450;SDS011;12243;42.708;23.310;2022-07-19T03:41:18;4.50;;;4.20;;
16450;SDS011;12243;42.708;23.310;2022-07-19T03:43:45;5.53;;;4.43;;
16450;SDS011;12243;42.708;23.310;2022-07-19T03:46:12;5.93;;;4.23;;
16450;SDS011;12243;42.708;23.310;2022-07-19T03:48:39;6.43;;;4.13;;
16450;SDS011;12243;42.708;23.310;2022-07-19T03:51:06;5.90;;;3.40;;
16450;SDS011;12243;42.708;23.310;2022-07-19T03:53:33;4.30;;;3.57;;
16450;SDS011;12243;42.708;23.310;2022-07-19T03:56:02;8.63;;;3.27;;
16450;SDS011;12243;42.708;23.310;2022-07-19T03:58:29;4.93;;;3.03;;
16450;SDS011;12243;42.708;23.310;2022-07-19T04:00:56;10.80;;;3.80;;
16450;SDS011;12243;42.708;23.310;2022-07-19T04:03:23;4.70;;;3.23;;
16450;SDS011;12243;42.708;23.310;2022-07-19T04:05:50;4.18;;;2.92;;
16450;SDS011;12243;42.708;23.310;2022-07-19T04:08:17;5.28;;;3.45;;
16450;SDS011;12243;42.708;23.310;2022-07-19T04:10:44;6.95;;;3.88;;
16450;SDS011;12243;42.708;23.310;2022-07-19T04:13:12;4.50;;;4.05;;
16450;SDS011;12243;42.708;23.310;2022-07-19T04:15:39;4.13;;;3.83;;
16450;SDS011;12243;42.708;23.310;2022-07-19T04:18:06;5.90;;;4.18;;
16450;SDS011;12243;42.708;23.310;2022-07-19T04:20:32;6.03;;;4.50;;
16450;SDS011;12243;42.708;23.310;2022-07-19T04:22:59;6.03;;;4.57;;
16450;SDS011;12243;42.708;23.310;2022-07-19T04:25:26;5.05;;;4.10;;
16450;SDS011;12243;42.708;23.310;2022-07-19T04:27:53;4.25;;;3.85;;
16450;SDS011;12243;42.708;23.310;2022-07-19T04:30:22;5.00;;;3.95;;
16450;SDS011;12243;42.708;23.310;2022-07-19T04:32:49;4.15;;;3.70;;
16450;SDS011;12243;42.708;23.310;2022-07-19T04:35:15;5.05;;;3.70;;
16450;SDS011;12243;42.708;23.310;2022-07-19T04:37:42;7.45;;;3.90;;
16450;SDS011;12243;42.708;23.310;2022-07-19T04:40:09;7.65;;;4.22;;
16450;SDS011;12243;42.708;23.310;2022-07-19T04:42:36;6.53;;;4.10;;
16450;SDS011;12243;42.708;23.310;2022-07-19T04:45:04;7.57;;;4.20;;
16450;SDS011;12243;42.708;23.310;2022-07-19T04:47:33;10.23;;;4.00;;
16450;SDS011;12243;42.708;23.310;2022-07-19T04:50:00;5.15;;;3.72;;
16450;SDS011;12243;42.708;23.310;2022-07-19T04:52:27;6.72;;;4.05;;
16450;SDS011;12243;42.708;23.310;2022-07-19T04:54:54;6.15;;;3.63;;
16450;SDS011;12243;42.708;23.310;2022-07-19T04:57:21;6.38;;;4.15;;
16450;SDS011;12243;42.708;23.310;2022-07-19T04:59:48;3.50;;;3.00;;
16450;SDS011;12243;42.708;23.310;2022-07-19T05:02:14;7.63;;;3.22;;
16450;SDS011;12243;42.708;23.310;2022-07-19T05:04:43;3.17;;;2.90;;
16450;SDS011;12243;42.708;23.310;2022-07-19T05:07:10;7.75;;;3.08;;
16450;SDS011;12243;42.708;23.310;2022-07-19T05:09:36;6.22;;;2.70;;
16450;SDS011;12243;42.708;23.310;2022-07-19T05:12:04;5.35;;;2.85;;
16450;SDS011;12243;42.708;23.310;2022-07-19T05:14:32;5.13;;;3.22;;
16450;SDS011;12243;42.708;23.310;2022-07-19T05:16:59;6.93;;;2.95;;
16450;SDS011;12243;42.708;23.310;2022-07-19T05:19:26;2.53;;;2.33;;
16450;SDS011;12243;42.708;23.310;2022-07-19T05:21:55;7.30;;;2.63;;
16450;SDS011;12243;42.708;23.310;2022-07-19T05:24:21;4.43;;;2.28;;
16450;SDS011;12243;42.708;23.310;2022-07-19T05:26:48;5.05;;;2.42;;
16450;SDS011;12243;42.708;23.310;2022-07-19T05:29:15;3.53;;;2.85;;
16450;SDS011;12243;42.708;23.310;2022-07-19T05:31:42;2.58;;;2.30;;
16450;SDS011;12243;42.708;23.310;2022-07-19T05:34:09;2.83;;;2.42;;
16450;SDS011;12243;42.708;23.310;2022-07-19T05:36:36;3.50;;;2.35;;
16450;SDS011;12243;42.708;23.310;2022-07-19T05:39:04;3.58;;;2.28;;
16450;SDS011;12243;42.708;23.310;2022-07-19T05:41:31;9.77;;;2.70;;
16450;SDS011;12243;42.708;23.310;2022-07-19T05:43:58;3.00;;;2.55;;
16450;SDS011;12243;42.708;23.310;2022-07-19T05:46:25;5.47;;;2.50;;
16450;SDS011;12243;42.708;23.310;2022-07-19T05:48:52;3.47;;;2.10;;
16450;SDS011;12243;42.708;23.310;2022-07-19T05:51:19;6.25;;;2.30;;
16450;SDS011;12243;42.708;23.310;2022-07-19T05:53:46;3.03;;;2.15;;
16450;SDS011;12243;42.708;23.310;2022-07-19T05:56:14;3.42;;;2.35;;
16450;SDS011;12243;42.708;23.310;2022-07-19T05:58:41;3.58;;;2.50;;
16450;SDS011;12243;42.708;23.310;2022-07-19T06:01:08;2.75;;;2.33;;
16450;SDS011;12243;42.708;23.310;2022-07-19T06:03:44;10.07;;;2.40;;
16450;SDS011;12243;42.708;23.310;2022-07-19T06:06:11;11.27;;;2.55;;
16450;SDS011;12243;42.708;23.310;2022-07-19T06:08:38;3.53;;;2.45;;
16450;SDS011;12243;42.708;23.310;2022-07-19T06:11:05;6.05;;;2.00;;
16450;SDS011;12243;42.708;23.310;2022-07-19T06:13:34;4.57;;;2.70;;
16450;SDS011;12243;42.708;23.310;2022-07-19T06:16:01;6.38;;;2.42;;
16450;SDS011;12243;42.708;23.310;2022-07-19T06:18:28;2.65;;;1.95;;
16450;SDS011;12243;42.708;23.310;2022-07-19T06:21:24;2.53;;;2.25;;
16450;SDS011;12243;42.708;23.310;2022-07-19T06:23:51;3.00;;;2.08;;
16450;SDS011;12243;42.708;23.310;2022-07-19T06:26:18;2.00;;;1.80;;
16450;SDS011;12243;42.708;23.310;2022-07-19T06:28:46;5.13;;;2.30;;
16450;SDS011;12243;42.708;23.310;2022-07-19T06:31:14;4.43;;;2.40;;
16450;SDS011;12243;42.708;23.310;2022-07-19T06:33:42;4.75;;;2.45;;
16450;SDS011;12243;42.708;23.310;2022-07-19T06:36:10;3.35;;;2.10;;
16450;SDS011;12243;42.708;23.310;2022-07-19T06:38:38;2.47;;;2.08;;
16450;SDS011;12243;42.708;23.310;2022-07-19T06:41:06;4.40;;;2.28;;
16450;SDS011;12243;42.708;23.310;2022-07-19T06:43:33;2.40;;;2.25;;
16450;SDS011;12243;42.708;23.310;2022-07-19T06:46:02;3.63;;;2.25;;
16450;SDS011;12243;42.708;23.310;2022-07-19T06:48:29;9.65;;;2.70;;
16450;SDS011;12243;42.708;23.310;2022-07-19T06:50:56;2.70;;;2.50;;
16450;SDS011;12243;42.708;23.310;2022-07-19T06:53:23;5.80;;;2.30;;
16450;SDS011;12243;42.708;23.310;2022-07-19T06:55:51;3.28;;;2.30;;
16450;SDS011;12243;42.708;23.310;2022-07-19T06:58:18;3.55;;;2.53;;
16450;SDS011;12243;42.708;23.310;2022-07-19T07:00:45;4.35;;;2.83;;
16450;SDS011;12243;42.708;23.310;2022-07-19T07:03:15;5.22;;;2.63;;
16450;SDS011;12243;42.708;23.310;2022-07-19T07:05:42;4.18;;;2.15;;
16450;SDS011;12243;42.708;23.310;2022-07-19T07:08:09;4.43;;;2.53;;
16450;SDS011;12243;42.708;23.310;2022-07-19T07:10:36;6.95;;;2.25;;
16450;SDS011;12243;42.708;23.310;2022-07-19T07:13:05;6.30;;;2.30;;
16450;SDS011;12243;42.708;23.310;2022-07-19T07:15:32;5.90;;;2.17;;
16450;SDS011;12243;42.708;23.310;2022-07-19T07:18:02;14.63;;;2.83;;
16450;SDS011;12243;42.708;23.310;2022-07-19T07:20:31;2.33;;;2.10;;
16450;SDS011;12243;42.708;23.310;2022-07-19T07:22:59;4.95;;;2.50;;
16450;SDS011;12243;42.708;23.310;2022-07-19T07:25:26;6.10;;;2.20;;
16450;SDS011;12243;42.708;23.310;2022-07-19T07:27:53;7.50;;;2.20;;
16450;SDS011;12243;42.708;23.310;2022-07-19T07:30:20;2.83;;;2.20;;
16450;SDS011;12243;42.708;23.310;2022-07-19T07:32:47;4.45;;;2.30;;
16450;SDS011;12243;42.708;23.310;2022-07-19T07:35:14;3.40;;;2.17;;
16450;SDS011;12243;42.708;23.310;2022-07-19T07:37:42;4.47;;;2.08;;
16450;SDS011;12243;42.708;23.310;2022-07-19T07:40:09;3.75;;;2.40;;
16450;SDS011;12243;42.708;23.310;2022-07-19T07:42:37;2.25;;;2.13;;
16450;SDS011;12243;42.708;23.310;2022-07-19T07:45:04;4.85;;;2.40;;
16450;SDS011;12243;42.708;23.310;2022-07-19T07:47:35;3.28;;;2.15;;
16450;SDS011;12243;42.708;23.310;2022-07-19T07:50:02;6.07;;;2.28;;
16450;SDS011;12243;42.708;23.310;2022-07-19T07:52:30;3.33;;;2.05;;
16450;SDS011;12243;42.708;23.310;2022-07-19T07:54:58;5.30;;;2.17;;
16450;SDS011;12243;42.708;23.310;2022-07-19T07:57:26;3.38;;;2.13;;
16450;SDS011;12243;42.708;23.310;2022-07-19T07:59:53;2.22;;;2.05;;
16450;SDS011;12243;42.708;23.310;2022-07-19T08:02:20;4.65;;;1.98;;
16450;SDS011;12243;42.708;23.310;2022-07-19T08:04:47;3.58;;;2.22;;
16450;SDS011;12243;42.708;23.310;2022-07-19T08:07:14;2.33;;;2.13;;
16450;SDS011;12243;42.708;23.310;2022-07-19T08:09:40;2.33;;;2.15;;
16450;SDS011;12243;42.708;23.310;2022-07-19T08:12:09;2.67;;;2.15;;
16450;SDS011;12243;42.708;23.310;2022-07-19T08:14:36;2.95;;;2.22;;
16450;SDS011;12243;42.708;23.310;2022-07-19T08:17:02;2.33;;;2.13;;
16450;SDS011;12243;42.708;23.310;2022-07-19T08:19:29;4.75;;;2.10;;
16450;SDS011;12243;42.708;23.310;2022-07-19T08:21:56;3.92;;;2.40;;
16450;SDS011;12243;42.708;23.310;2022-07-19T08:24:23;2.25;;;2.15;;
16450;SDS011;12243;42.708;23.310;2022-07-19T08:26:50;2.65;;;2.10;;
16450;SDS011;12243;42.708;23.310;2022-07-19T08:29:18;4.30;;;2.30;;
16450;SDS011;12243;42.708;23.310;2022-07-19T08:31:45;2.95;;;2.03;;
16450;SDS011;12243;42.708;23.310;2022-07-19T08:34:12;2.05;;;1.95;;
16450;SDS011;12243;42.708;23.310;2022-07-19T08:36:39;2.40;;;2.20;;
16450;SDS011;12243;42.708;23.310;2022-07-19T08:39:06;5.30;;;2.10;;
16450;SDS011;12243;42.708;23.310;2022-07-19T08:41:33;2.70;;;2.13;;
16450;SDS011;12243;42.708;23.310;2022-07-19T08:44:01;2.03;;;1.90;;
16450;SDS011;12243;42.708;23.310;2022-07-19T08:46:30;2.80;;;1.88;;
16450;SDS011;12243;42.708;23.310;2022-07-19T08:48:57;2.45;;;2.35;;
16450;SDS011;12243;42.708;23.310;2022-07-19T08:51:25;3.55;;;2.67;;
16450;SDS011;12243;42.708;23.310;2022-07-19T08:53:53;3.97;;;2.17;;
16450;SDS011;12243;42.708;23.310;2022-07-19T08:56:19;7.47;;;2.25;;
16450;SDS011;12243;42.708;23.310;2022-07-19T08:59:04;2.28;;;2.08;;
16450;SDS011;12243;42.708;23.310;2022-07-19T09:01:33;2.63;;;2.40;;
16450;SDS011;12243;42.708;23.310;2022-07-19T09:04:04;2.40;;;2.30;;
16450;SDS011;12243;42.708;23.310;2022-07-19T09:06:41;5.03;;;2.10;;
16450;SDS011;12243;42.708;23.310;2022-07-19T09:09:10;3.05;;;2.30;;
16450;SDS011;12243;42.708;23.310;2022-07-19T09:11:39;5.20;;;2.08;;
16450;SDS011;12243;42.708;23.310;2022-07-19T09:14:14;4.03;;;2.10;;
16450;SDS011;12243;42.708;23.310;2022-07-19T09:16:50;3.70;;;2.33;;
16450;SDS011;12243;42.708;23.310;2022-07-19T09:19:26;6.28;;;2.10;;
16450;SDS011;12243;42.708;23.310;2022-07-19T09:21:56;2.30;;;2.10;;
16450;SDS011;12243;42.708;23.310;2022-07-19T09:24:26;3.63;;;2.03;;
16450;SDS011;12243;42.708;23.310;2022-07-19T09:26:54;2.55;;;1.80;;
16450;SDS011;12243;42.708;23.310;2022-07-19T09:29:26;2.50;;;2.30;;
16450;SDS011;12243;42.708;23.310;2022-07-19T09:34:42;2.72;;;2.45;;
16450;SDS011;12243;42.708;23.310;2022-07-19T09:37:21;3.72;;;2.50;;
16450;SDS011;12243;42.708;23.310;2022-07-19T09:39:51;2.40;;;2.20;;
16450;SDS011;12243;42.708;23.310;2022-07-19T09:42:20;2.33;;;2.00;;
16450;SDS011;12243;42.708;23.310;2022-07-19T09:44:56;3.10;;;1.77;;
16450;SDS011;12243;42.708;23.310;2022-07-19T09:47:31;2.17;;;2.08;;
16450;SDS011;12243;42.708;23.310;2022-07-19T09:49:59;2.88;;;2.13;;
16450;SDS011;12243;42.708;23.310;2022-07-19T09:52:26;6.30;;;2.17;;
16450;SDS011;12243;42.708;23.310;2022-07-19T09:54:53;2.50;;;2.40;;
16450;SDS011;12243;42.708;23.310;2022-07-19T09:57:21;2.90;;;2.05;;
16450;SDS011;12243;42.708;23.310;2022-07-19T09:59:50;3.05;;;2.20;;
16450;SDS011;12243;42.708;23.310;2022-07-19T10:02:21;7.93;;;2.05;;
16450;SDS011;12243;42.708;23.310;2022-07-19T10:04:50;4.28;;;2.20;;
16450;SDS011;12243;42.708;23.310;2022-07-19T10:07:17;2.33;;;2.20;;
16450;SDS011;12243;42.708;23.310;2022-07-19T10:09:45;5.70;;;2.50;;
16450;SDS011;12243;42.708;23.310;2022-07-19T10:12:12;4.72;;;2.80;;
16450;SDS011;12243;42.708;23.310;2022-07-19T10:14:39;2.97;;;2.35;;
16450;SDS011;12243;42.708;23.310;2022-07-19T10:17:13;3.85;;;2.50;;
16450;SDS011;12243;42.708;23.310;2022-07-19T10:19:48;2.25;;;2.10;;
16450;SDS011;12243;42.708;23.310;2022-07-19T10:22:17;5.95;;;2.25;;
16450;SDS011;12243;42.708;23.310;2022-07-19T10:24:50;3.90;;;2.10;;
16450;SDS011;12243;42.708;23.310;2022-07-19T10:27:19;2.17;;;2.00;;
16450;SDS011;12243;42.708;23.310;2022-07-19T10:30:15;3.15;;;2.08;;
16450;SDS011;12243;42.708;23.310;2022-07-19T10:32:43;2.58;;;2.20;;
16450;SDS011;12243;42.708;23.310;2022-07-19T10:35:17;3.28;;;2.17;;
16450;SDS011;12243;42.708;23.310;2022-07-19T10:37:46;3.45;;;2.10;;
16450;SDS011;12243;42.708;23.310;2022-07-19T10:40:20;2.60;;;2.20;;
16450;SDS011;12243;42.708;23.310;2022-07-19T10:43:05;2.45;;;2.25;;
16450;SDS011;12243;42.708;23.310;2022-07-19T10:45:32;2.70;;;2.50;;
16450;SDS011;12243;42.708;23.310;2022-07-19T10:48:04;7.82;;;2.30;;
16450;SDS011;12243;42.708;23.310;2022-07-19T10:50:43;2.30;;;2.15;;
16450;SDS011;12243;42.708;23.310;2022-07-19T10:56:23;5.38;;;2.58;;
16450;SDS011;12243;42.708;23.310;2022-07-19T10:58:54;4.20;;;2.35;;
16450;SDS011;12243;42.708;23.310;2022-07-19T11:01:24;2.30;;;2.15;;
16450;SDS011;12243;42.708;23.310;2022-07-19T11:03:53;3.97;;;2.50;;
16450;SDS011;12243;42.708;23.310;2022-07-19T11:06:42;2.63;;;2.40;;
16450;SDS011;12243;42.708;23.310;2022-07-19T11:09:09;4.93;;;2.53;;
16450;SDS011;12243;42.708;23.310;2022-07-19T11:11:35;2.80;;;2.60;;
16450;SDS011;12243;42.708;23.310;2022-07-19T11:14:03;2.05;;;1.95;;
16450;SDS011;12243;42.708;23.310;2022-07-19T11:16:30;5.70;;;2.00;;
16450;SDS011;12243;42.708;23.310;2022-07-19T11:19:01;2.20;;;2.00;;
16450;SDS011;12243;42.708;23.310;2022-07-19T11:21:29;2.38;;;2.13;;
16450;SDS011;12243;42.708;23.310;2022-07-19T11:23:59;4.00;;;2.55;;
16450;SDS011;12243;42.708;23.310;2022-07-19T11:26:26;3.00;;;2.50;;
16450;SDS011;12243;42.708;23.310;2022-07-19T11:29:01;4.55;;;2.55;;
16450;SDS011;12243;42.708;23.310;2022-07-19T11:31:28;2.65;;;2.40;;
16450;SDS011;12243;42.708;23.310;2022-07-19T11:33:55;2.50;;;2.30;;
16450;SDS011;12243;42.708;23.310;2022-07-19T11:36:22;4.25;;;2.25;;
16450;SDS011;12243;42.708;23.310;2022-07-19T11:38:52;3.80;;;2.38;;
16450;SDS011;12243;42.708;23.310;2022-07-19T11:41:24;2.50;;;2.30;;
16450;SDS011;12243;42.708;23.310;2022-07-19T11:43:52;3.25;;;2.30;;
16450;SDS011;12243;42.708;23.310;2022-07-19T11:46:20;3.70;;;2.00;;
16450;SDS011;12243;42.708;23.310;2022-07-19T11:48:48;3.88;;;2.55;;
16450;SDS011;12243;42.708;23.310;2022-07-19T11:51:16;2.20;;;2.05;;
16450;SDS011;12243;42.708;23.310;2022-07-19T11:53:43;2.45;;;2.25;;
16450;SDS011;12243;42.708;23.310;2022-07-19T11:56:16;2.17;;;2.08;;
16450;SDS011;12243;42.708;23.310;2022-07-19T11:58:46;3.40;;;2.17;;
16450;SDS011;12243;42.708;23.310;2022-07-19T12:01:13;2.10;;;2.00;;
16450;SDS011;12243;42.708;23.310;2022-07-19T12:03:41;2.55;;;2.45;;
16450;SDS011;12243;42.708;23.310;2022-07-19T12:06:19;2.08;;;2.03;;
16450;SDS011;12243;42.708;23.310;2022-07-19T12:08:46;5.78;;;2.58;;
16450;SDS011;12243;42.708;23.310;2022-07-19T12:11:17;2.50;;;2.33;;
16450;SDS011;12243;42.708;23.310;2022-07-19T12:13:50;4.43;;;2.30;;
16450;SDS011;12243;42.708;23.310;2022-07-19T12:16:18;3.92;;;2.45;;
16450;SDS011;12243;42.708;23.310;2022-07-19T12:18:46;5.05;;;1.98;;
16450;SDS011;12243;42.708;23.310;2022-07-19T12:21:23;8.93;;;2.78;;
16450;SDS011;12243;42.708;23.310;2022-07-19T12:26:45;3.63;;;2.05;;
16450;SDS011;12243;42.708;23.310;2022-07-19T12:29:23;2.28;;;2.05;;
16450;SDS011;12243;42.708;23.310;2022-07-19T12:31:52;2.38;;;2.13;;
16450;SDS011;12243;42.708;23.310;2022-07-19T12:34:20;3.45;;;2.00;;
16450;SDS011;12243;42.708;23.310;2022-07-19T12:36:48;3.83;;;2.20;;
16450;SDS011;12243;42.708;23.310;2022-07-19T12:39:16;1.85;;;1.75;;
16450;SDS011;12243;42.708;23.310;2022-07-19T12:44:34;7.43;;;2.20;;
16450;SDS011;12243;42.708;23.310;2022-07-19T12:47:02;1.98;;;1.92;;
16450;SDS011;12243;42.708;23.310;2022-07-19T12:49:42;5.43;;;2.30;;
16450;SDS011;12243;42.708;23.310;2022-07-19T12:52:09;2.35;;;2.10;;
16450;SDS011;12243;42.708;23.310;2022-07-19T12:54:37;9.10;;;2.63;;
16450;SDS011;12243;42.708;23.310;2022-07-19T12:57:04;2.05;;;1.85;;
16450;SDS011;12243;42.708;23.310;2022-07-19T12:59:31;2.63;;;1.98;;
16450;SDS011;12243;42.708;23.310;2022-07-19T13:02:09;4.00;;;2.10;;
16450;SDS011;12243;42.708;23.310;2022-07-19T13:04:37;2.40;;;2.08;;
16450;SDS011;12243;42.708;23.310;2022-07-19T13:07:05;2.10;;;2.00;;
16450;SDS011;12243;42.708;23.310;2022-07-19T13:09:33;2.97;;;2.00;;
16450;SDS011;12243;42.708;23.310;2022-07-19T13:12:00;5.43;;;1.85;;
16450;SDS011;12243;42.708;23.310;2022-07-19T13:14:27;1.98;;;1.83;;
16450;SDS011;12243;42.708;23.310;2022-07-19T13:16:55;4.35;;;2.00;;
16450;SDS011;12243;42.708;23.310;2022-07-19T13:19:23;4.63;;;2.05;;
16450;SDS011;12243;42.708;23.310;2022-07-19T13:21:51;2.45;;;2.13;;
16450;SDS011;12243;42.708;23.310;2022-07-19T13:24:18;6.72;;;2.05;;
16450;SDS011;12243;42.708;23.310;2022-07-19T13:26:46;2.88;;;2.05;;
16450;SDS011;12243;42.708;23.310;2022-07-19T13:29:12;6.53;;;2.13;;
16450;SDS011;12243;42.708;23.310;2022-07-19T13:31:39;2.20;;;2.00;;
16450;SDS011;12243;42.708;23.310;2022-07-19T13:34:06;2.55;;;1.98;;
16450;SDS011;12243;42.708;23.310;2022-07-19T13:36:35;3.85;;;2.25;;
16450;SDS011;12243;42.708;23.310;2022-07-19T13:39:01;4.00;;;1.77;;
16450;SDS011;12243;42.708;23.310;2022-07-19T13:41:29;3.25;;;2.03;;
16450;SDS011;12243;42.708;23.310;2022-07-19T13:43:56;2.60;;;1.80;;
16450;SDS011;12243;42.708;23.310;2022-07-19T13:46:23;3.63;;;1.90;;
16450;SDS011;12243;42.708;23.310;2022-07-19T13:48:49;2.00;;;1.90;;
16450;SDS011;12243;42.708;23.310;2022-07-19T13:51:16;1.90;;;1.80;;
16450;SDS011;12243;42.708;23.310;2022-07-19T13:53:45;2.17;;;1.90;;
16450;SDS011;12243;42.708;23.310;2022-07-19T13:56:13;3.78;;;1.90;;
16450;SDS011;12243;42.708;23.310;2022-07-19T13:58:40;1.90;;;1.77;;
16450;SDS011;12243;42.708;23.310;2022-07-19T14:01:07;2.85;;;1.90;;
16450;SDS011;12243;42.708;23.310;2022-07-19T14:03:36;2.88;;;1.80;;
16450;SDS011;12243;42.708;23.310;2022-07-19T14:06:03;2.10;;;2.00;;
16450;SDS011;12243;42.708;23.310;2022-07-19T14:08:30;2.03;;;1.90;;
16450;SDS011;12243;42.708;23.310;2022-07-19T14:10:59;3.72;;;1.98;;
16450;SDS011;12243;42.708;23.310;2022-07-19T14:13:26;2.80;;;1.85;;
16450;SDS011;12243;42.708;23.310;2022-07-19T14:15:53;2.47;;;1.77;;
16450;SDS011;12243;42.708;23.310;2022-07-19T14:18:20;1.80;;;1.70;;
16450;SDS011;12243;42.708;23.310;2022-07-19T14:20:47;1.95;;;1.70;;
16450;SDS011;12243;42.708;23.310;2022-07-19T14:23:14;4.03;;;1.70;;
16450;SDS011;12243;42.708;23.310;2022-07-19T14:25:41;2.80;;;1.80;;
16450;SDS011;12243;42.708;23.310;2022-07-19T14:28:10;2.00;;;1.80;;
16450;SDS011;12243;42.708;23.310;2022-07-19T14:30:36;2.03;;;1.63;;
16450;SDS011;12243;42.708;23.310;2022-07-19T14:33:04;3.65;;;1.60;;
16450;SDS011;12243;42.708;23.310;2022-07-19T14:35:31;1.95;;;1.85;;
16450;SDS011;12243;42.708;23.310;2022-07-19T14:37:58;2.30;;;1.80;;
16450;SDS011;12243;42.708;23.310;2022-07-19T14:40:25;2.60;;;1.77;;
16450;SDS011;12243;42.708;23.310;2022-07-19T14:42:52;4.45;;;1.60;;
16450;SDS011;12243;42.708;23.310;2022-07-19T14:45:20;3.13;;;1.75;;
16450;SDS011;12243;42.708;23.310;2022-07-19T14:47:47;3.20;;;1.60;;
16450;SDS011;12243;42.708;23.310;2022-07-19T14:50:14;2.03;;;1.60;;